createdAt,value
2018-08-11T00:02:07.057Z,16.80
2018-08-11T00:04:45.593Z,16.75
2018-08-11T00:07:20.494Z,16.62
2018-08-11T00:09:53.180Z,16.79
2018-08-11T00:12:25.457Z,16.69
2018-08-11T00:14:58.965Z,16.66
2018-08-11T00:17:32.688Z,16.69
2018-08-11T00:20:13.688Z,16.72
2018-08-11T00:22:49.760Z,16.70
2018-08-11T00:25:20.317Z,16.66
2018-08-11T00:27:52.153Z,16.60
2018-08-11T00:30:31.401Z,16.49
2018-08-11T00:33:07.985Z,16.45
2018-08-11T00:35:43.713Z,16.48
2018-08-11T00:38:21.042Z,16.47
2018-08-11T00:41:20.383Z,16.39
2018-08-11T00:44:01.893Z,16.45
2018-08-11T00:46:38.571Z,16.35
2018-08-11T00:49:17.367Z,16.36
2018-08-11T00:55:09.532Z,16.23
2018-08-11T00:57:49.812Z,16.28
2018-08-11T01:00:23.334Z,16.37
2018-08-11T01:02:56.765Z,16.51
2018-08-11T01:05:27.525Z,16.40
2018-08-11T01:07:59.038Z,16.58
2018-08-11T01:10:31.498Z,16.70
2018-08-11T01:13:03.616Z,16.76
2018-08-11T01:15:35.830Z,16.85
2018-08-11T01:18:09.718Z,16.82
2018-08-11T01:20:41.647Z,16.90
2018-08-11T01:23:17.897Z,16.93
2018-08-11T01:25:54.450Z,17.03
2018-08-11T01:28:27.230Z,16.91
2018-08-11T01:30:59.639Z,17.07
2018-08-11T01:33:33.580Z,17.18
2018-08-11T01:36:04.779Z,17.05
2018-08-11T01:38:39.165Z,16.94
2018-08-11T01:41:11.730Z,17.02
2018-08-11T01:43:45.724Z,17.07
2018-08-11T01:46:21.366Z,17.21
2018-08-11T01:48:56.918Z,17.17
2018-08-11T01:51:33.692Z,17.13
2018-08-11T01:54:10.635Z,16.96
2018-08-11T01:56:45.517Z,16.80
2018-08-11T01:59:16.978Z,16.73
2018-08-11T02:01:50.053Z,16.65
2018-08-11T02:04:22.206Z,16.62
2018-08-11T02:06:58.508Z,16.61
2018-08-11T02:09:33.397Z,16.63
2018-08-11T02:12:05.862Z,16.63
2018-08-11T02:14:38.290Z,16.64
2018-08-11T02:17:10.645Z,16.66
2018-08-11T02:19:43.169Z,16.68
2018-08-11T02:22:16.347Z,16.64
2018-08-11T02:24:50.672Z,16.81
2018-08-11T02:27:22.269Z,16.98
2018-08-11T02:29:54.761Z,17.07
2018-08-11T02:35:30.680Z,17.18
2018-08-11T02:38:06.405Z,17.26
2018-08-11T02:40:46.073Z,17.25
2018-08-11T02:43:19.045Z,17.30
2018-08-11T02:45:52.676Z,17.27
2018-08-11T02:48:29.646Z,17.07
2018-08-11T02:50:59.410Z,16.95
2018-08-11T02:53:31.633Z,16.96
2018-08-11T02:56:01.359Z,17.10
2018-08-11T02:58:36.610Z,16.91
2018-08-11T03:01:10.426Z,16.84
2018-08-11T03:03:45.805Z,16.80
2018-08-11T03:06:20.345Z,16.80
2018-08-11T03:08:53.926Z,16.63
2018-08-11T03:11:25.516Z,16.59
2018-08-11T03:14:05.542Z,16.61
2018-08-11T03:16:41.929Z,16.54
2018-08-11T03:19:14.131Z,16.48
2018-08-11T03:21:47.900Z,16.46
2018-08-11T03:24:20.409Z,16.54
2018-08-11T03:26:56.421Z,16.51
2018-08-11T03:29:34.708Z,16.47
2018-08-11T03:32:08.507Z,16.50
2018-08-11T03:34:42.921Z,16.76
2018-08-11T03:37:15.284Z,16.63
2018-08-11T03:39:48.771Z,16.63
2018-08-11T03:42:26.109Z,16.81
2018-08-11T03:47:36.359Z,16.65
2018-08-11T03:50:10.891Z,16.53
2018-08-11T03:52:45.446Z,16.69
2018-08-11T03:55:22.762Z,16.51
2018-08-11T03:57:55.413Z,16.66
2018-08-11T04:03:08.074Z,16.84
2018-08-11T04:05:41.112Z,16.60
2018-08-11T04:08:15.488Z,16.61
2018-08-11T04:10:47.121Z,16.43
2018-08-11T04:13:19.247Z,16.51
2018-08-11T04:15:51.457Z,16.57
2018-08-11T04:18:23.573Z,16.44
2018-08-11T04:20:55.019Z,16.45
2018-08-11T04:23:25.949Z,16.47
2018-08-11T04:25:58.385Z,16.48
2018-08-11T04:28:37.953Z,16.34
2018-08-11T04:31:09.857Z,16.42
2018-08-11T04:33:43.511Z,16.45
2018-08-11T04:36:16.844Z,16.33
2018-08-11T04:41:31.924Z,16.00
2018-08-11T04:44:09.399Z,16.02
2018-08-11T04:46:41.339Z,15.76
2018-08-11T04:49:13.130Z,15.68
2018-08-11T04:51:44.286Z,15.55
2018-08-11T04:54:15.409Z,15.29
2018-08-11T04:56:45.967Z,15.22
2018-08-11T04:59:16.617Z,15.12
2018-08-11T05:01:47.803Z,15.15
2018-08-11T05:04:18.082Z,15.06
2018-08-11T05:06:50.404Z,14.89
2018-08-11T05:09:22.225Z,14.81
2018-08-11T05:11:52.471Z,14.77
2018-08-11T05:14:22.656Z,14.75
2018-08-11T05:16:52.778Z,14.89
2018-08-11T05:19:24.760Z,15.08
2018-08-11T05:21:55.379Z,14.92
2018-08-11T05:24:28.605Z,14.67
2018-08-11T05:27:05.180Z,14.95
2018-08-11T05:29:39.949Z,14.83
2018-08-11T05:32:10.348Z,14.88
2018-08-11T05:34:43.396Z,15.06
2018-08-11T05:37:17.832Z,14.89
2018-08-11T05:39:51.868Z,14.86
2018-08-11T05:42:25.028Z,14.83
2018-08-11T05:45:00.035Z,15.02
2018-08-11T05:47:34.043Z,14.80
2018-08-11T05:50:07.737Z,14.89
2018-08-11T05:52:40.771Z,14.76
2018-08-11T05:55:10.541Z,14.93
2018-08-11T05:57:41.672Z,14.95
2018-08-11T06:00:14.526Z,14.92
2018-08-11T06:02:47.632Z,14.83
2018-08-11T06:05:20.036Z,14.61
2018-08-11T06:07:49.792Z,14.67
2018-08-11T06:10:20.063Z,14.78
2018-08-11T06:12:49.932Z,14.60
2018-08-11T06:15:25.519Z,14.58
2018-08-11T06:17:59.932Z,14.77
2018-08-11T06:20:33.332Z,14.69
2018-08-11T06:23:05.091Z,14.64
2018-08-11T06:25:36.298Z,14.92
2018-08-11T06:28:09.316Z,14.82
2018-08-11T06:30:39.582Z,14.79
2018-08-11T06:33:13.544Z,14.82
2018-08-11T06:35:44.846Z,14.99
2018-08-11T06:38:16.555Z,14.94
2018-08-11T06:40:48.314Z,14.63
2018-08-11T06:43:19.546Z,14.92
2018-08-11T06:45:50.532Z,15.03
2018-08-11T06:49:13.808Z,15.09
2018-08-11T06:51:44.075Z,15.19
2018-08-11T06:54:14.918Z,15.13
2018-08-11T06:56:45.363Z,15.17
2018-08-11T06:59:17.054Z,15.06
2018-08-11T07:01:47.721Z,15.43
2018-08-11T07:04:18.095Z,15.18
2018-08-11T07:06:49.865Z,15.28
2018-08-11T07:09:21.393Z,15.28
2018-08-11T07:11:53.599Z,15.44
2018-08-11T07:14:24.875Z,15.43
2018-08-11T07:16:55.874Z,15.46
2018-08-11T07:19:26.444Z,15.98
2018-08-11T07:22:00.877Z,16.18
2018-08-11T07:24:31.275Z,15.64
2018-08-11T07:27:05.462Z,16.20
2018-08-11T07:29:36.487Z,16.38
2018-08-11T07:32:09.070Z,16.94
2018-08-11T07:34:40.460Z,17.18
2018-08-11T07:37:14.582Z,16.67
2018-08-11T07:39:46.847Z,16.84
2018-08-11T07:42:18.652Z,16.40
2018-08-11T07:44:50.075Z,16.37
2018-08-11T07:47:21.228Z,16.41
2018-08-11T07:49:52.142Z,16.08
2018-08-11T07:52:23.160Z,16.40
2018-08-11T07:54:54.746Z,16.48
2018-08-11T07:58:22.552Z,16.83
2018-08-11T08:01:01.809Z,16.61
2018-08-11T08:06:59.565Z,17.64
2018-08-11T08:10:18.441Z,17.64
2018-08-11T08:19:20.329Z,17.43
2018-08-11T08:21:52.257Z,17.36
2018-08-11T08:31:44.477Z,18.19
2018-08-11T08:34:36.177Z,18.32
2018-08-11T09:34:00.077Z,17.42
2018-08-11T09:36:33.248Z,17.12
2018-08-11T09:39:08.308Z,17.11
2018-08-11T10:15:34.347Z,17.70
2018-08-11T10:18:26.193Z,17.80
2018-08-11T10:24:14.130Z,17.24
2018-08-11T11:01:50.032Z,18.03
2018-08-11T11:18:41.903Z,17.84
2018-08-11T11:25:15.756Z,18.05
2018-08-11T11:28:11.807Z,17.76
2018-08-11T11:30:43.287Z,17.69
2018-08-11T11:33:30.810Z,17.15
2018-08-11T11:36:12.426Z,16.98
2018-08-11T11:52:19.371Z,16.37
2018-08-11T11:54:54.238Z,16.27
2018-08-11T11:57:42.876Z,16.56
2018-08-11T12:00:21.662Z,16.38
2018-08-11T12:03:02.774Z,16.50
2018-08-11T12:05:43.218Z,16.68
2018-08-11T12:08:23.644Z,16.69
2018-08-11T12:10:59.113Z,16.82
2018-08-11T12:13:43.630Z,17.05
2018-08-11T12:19:17.504Z,16.90
2018-08-11T12:22:43.999Z,16.83
2018-08-11T12:49:04.663Z,17.96
2018-08-11T12:51:39.941Z,18.29
2018-08-11T12:54:16.491Z,18.25
2018-08-11T12:56:52.760Z,18.45
2018-08-11T12:59:25.852Z,18.50
2018-08-11T13:02:01.683Z,18.29
2018-08-11T13:04:45.895Z,18.52
2018-08-11T13:07:20.867Z,18.37
2018-08-11T13:09:54.805Z,18.07
2018-08-11T13:12:25.923Z,18.23
2018-08-11T13:17:57.751Z,18.04
2018-08-11T13:20:30.810Z,17.51
2018-08-11T13:23:46.067Z,17.06
2018-08-11T13:27:02.787Z,16.63
2018-08-11T13:29:49.037Z,16.84
2018-08-11T13:33:20.962Z,16.80
2018-08-11T13:36:10.216Z,16.64
2018-08-11T13:38:46.880Z,17.15
2018-08-11T13:41:31.212Z,17.14
2018-08-11T13:44:13.535Z,17.30
2018-08-11T13:46:48.033Z,17.26
2018-08-11T13:49:24.531Z,17.18
2018-08-11T13:51:58.300Z,17.08
2018-08-11T13:54:41.439Z,17.39
2018-08-11T13:57:20.058Z,17.76
2018-08-11T13:59:54.002Z,17.89
2018-08-11T14:02:25.389Z,17.71
2018-08-11T14:05:01.364Z,17.89
2018-08-11T14:07:32.108Z,17.81
2018-08-11T14:10:02.428Z,17.99
2018-08-11T14:12:33.747Z,17.91
2018-08-11T14:15:10.024Z,18.16
2018-08-11T14:17:44.395Z,18.20
2018-08-11T14:20:15.587Z,18.26
2018-08-11T14:22:46.215Z,18.17
2018-08-11T14:25:16.921Z,18.31
2018-08-11T14:27:51.860Z,18.45
2018-08-11T14:30:22.964Z,18.41
2018-08-11T14:32:54.244Z,18.65
2018-08-11T14:35:25.638Z,18.61
2018-08-11T14:38:03.560Z,18.28
2018-08-11T14:40:36.891Z,17.98
2018-08-11T14:43:07.994Z,17.81
2018-08-11T14:45:43.111Z,17.93
2018-08-11T14:48:17.833Z,18.15
2018-08-11T14:50:58.783Z,18.55
2018-08-11T14:53:32.728Z,18.64
2018-08-11T14:56:08.083Z,18.52
2018-08-11T14:58:39.718Z,18.58
2018-08-11T15:01:12.660Z,18.52
2018-08-11T15:03:45.399Z,18.55
2018-08-11T15:06:21.014Z,18.55
2018-08-11T15:08:53.359Z,19.01
2018-08-11T15:11:27.360Z,18.84
2018-08-11T15:14:07.006Z,18.80
2018-08-11T15:19:19.739Z,18.77
2018-08-11T15:21:49.666Z,18.81
2018-08-11T15:24:19.994Z,18.74
2018-08-11T15:27:26.398Z,18.81
2018-08-11T15:29:58.607Z,19.00
2018-08-11T15:32:29.697Z,18.89
2018-08-11T15:35:02.739Z,18.88
2018-08-11T15:37:33.268Z,18.91
2018-08-11T15:40:08.867Z,19.05
2018-08-11T15:42:42.141Z,19.07
2018-08-11T15:45:16.013Z,18.93
2018-08-11T15:47:50.881Z,19.02
2018-08-11T15:50:21.787Z,18.79
2018-08-11T15:52:53.379Z,18.45
2018-08-11T15:55:24.996Z,18.42
2018-08-11T15:57:56.968Z,18.47
2018-08-11T16:00:28.726Z,18.32
2018-08-11T16:03:07.671Z,18.28
2018-08-11T16:05:40.220Z,18.26
2018-08-11T16:08:16.786Z,18.31
2018-08-11T16:10:55.649Z,18.43
2018-08-11T16:13:26.767Z,18.51
2018-08-11T16:15:59.710Z,18.58
2018-08-11T16:18:45.828Z,18.69
2018-08-11T16:21:22.022Z,18.85
2018-08-11T16:24:02.419Z,18.66
2018-08-11T16:26:37.766Z,18.62
2018-08-11T16:29:12.962Z,18.63
2018-08-11T16:31:44.720Z,18.57
2018-08-11T16:34:18.225Z,18.65
2018-08-11T16:36:49.460Z,18.52
2018-08-11T16:39:20.429Z,18.55
2018-08-11T16:41:53.502Z,18.47
2018-08-11T16:44:24.646Z,18.32
2018-08-11T17:00:18.363Z,18.11
2018-08-11T17:02:49.706Z,18.30
2018-08-11T17:05:19.956Z,18.40
2018-08-11T17:07:50.553Z,18.40
2018-08-11T17:10:21.186Z,18.61
2018-08-11T17:12:52.994Z,18.32
2018-08-11T17:15:24.543Z,18.35
2018-08-11T17:17:56.540Z,18.23
2018-08-11T17:20:27.169Z,18.14
2018-08-11T17:22:58.242Z,18.11
2018-08-11T17:28:21.313Z,18.14
2018-08-11T17:30:51.834Z,18.12
2018-08-11T17:33:23.273Z,18.21
2018-08-11T17:35:54.711Z,18.40
2018-08-11T17:38:26.399Z,18.46
2018-08-11T17:40:59.729Z,18.69
2018-08-11T17:51:36.795Z,17.97
2018-08-11T17:54:10.003Z,17.96
2018-08-11T17:56:42.579Z,17.85
2018-08-11T17:59:18.985Z,17.77
2018-08-11T18:01:57.051Z,17.89
2018-08-11T18:04:31.080Z,17.69
2018-08-11T18:07:02.952Z,17.52
2018-08-11T18:09:37.168Z,17.50
2018-08-11T18:12:13.591Z,17.62
2018-08-11T18:14:50.103Z,17.47
2018-08-11T18:20:14.172Z,17.63
2018-08-11T18:22:49.021Z,17.52
2018-08-11T18:25:22.009Z,17.62
2018-08-11T18:27:53.648Z,17.43
2018-08-11T18:30:36.938Z,17.46
2018-08-11T18:33:13.956Z,17.36
2018-08-11T18:35:46.528Z,17.23
2018-08-11T18:38:17.956Z,17.21
2018-08-11T18:40:49.292Z,17.23
2018-08-11T18:43:21.961Z,17.16
2018-08-11T18:48:38.088Z,17.24
2018-08-11T18:51:13.965Z,17.20
2018-08-11T18:53:45.929Z,17.22
2018-08-11T18:56:18.705Z,17.14
2018-08-11T18:58:50.052Z,17.16
2018-08-11T19:01:36.167Z,17.12
2018-08-11T19:04:18.489Z,17.15
2018-08-11T19:06:49.220Z,17.13
2018-08-11T19:09:19.475Z,17.05
2018-08-11T19:11:50.916Z,17.02
2018-08-11T19:14:22.439Z,16.87
2018-08-11T19:16:55.321Z,16.94
2018-08-11T19:19:27.079Z,16.87
2018-08-11T19:22:00.571Z,16.96
2018-08-11T19:24:39.181Z,16.94
2018-08-11T19:27:09.999Z,16.99
2018-08-11T19:29:41.983Z,16.84
2018-08-11T19:32:16.816Z,16.48
2018-08-11T19:34:47.494Z,16.65
2018-08-11T19:37:18.172Z,16.75
2018-08-11T19:39:52.251Z,16.77
2018-08-11T19:42:23.320Z,16.62
2018-08-11T19:44:54.201Z,16.66
2018-08-11T19:47:25.707Z,16.60
2018-08-11T19:49:58.074Z,16.62
2018-08-11T19:52:28.290Z,16.50
2018-08-11T19:55:00.453Z,16.54
2018-08-11T19:57:32.372Z,16.56
2018-08-11T20:00:03.036Z,16.55
2018-08-11T20:02:34.937Z,16.49
2018-08-11T20:05:12.044Z,16.48
2018-08-11T20:07:50.004Z,16.50
2018-08-11T20:10:25.649Z,16.51
2018-08-11T20:12:56.331Z,16.45
2018-08-11T20:15:27.323Z,16.53
2018-08-11T20:17:59.459Z,16.60
2018-08-11T20:20:30.382Z,16.59
2018-08-11T20:23:01.172Z,16.53
2018-08-11T20:25:33.601Z,16.54
2018-08-11T20:28:04.409Z,16.58
2018-08-11T20:30:50.731Z,16.41
2018-08-11T20:33:24.802Z,16.37
2018-08-11T20:35:55.891Z,16.50
2018-08-11T20:38:28.406Z,16.50
2018-08-11T20:40:58.785Z,16.48
2018-08-11T20:43:28.988Z,16.46
2018-08-11T20:45:59.833Z,16.44
2018-08-11T20:48:32.444Z,16.38
2018-08-11T20:51:06.630Z,16.35
2018-08-11T20:53:37.814Z,16.35
2018-08-11T20:56:11.458Z,16.26
2018-08-11T20:58:43.641Z,16.26
2018-08-11T21:01:15.579Z,16.33
2018-08-11T21:03:46.229Z,16.28
2018-08-11T21:06:17.310Z,16.37
2018-08-11T21:08:51.857Z,16.40
2018-08-11T21:11:22.773Z,16.31
2018-08-11T21:13:53.692Z,16.24
2018-08-11T21:16:24.071Z,16.21
2018-08-11T21:18:55.221Z,16.18
2018-08-11T21:21:27.956Z,16.25
2018-08-11T21:24:04.494Z,16.09
2018-08-11T21:26:34.782Z,15.89
2018-08-11T21:29:05.887Z,15.95
2018-08-11T21:31:36.518Z,16.01
2018-08-11T21:34:11.966Z,15.88
2018-08-11T21:36:45.346Z,16.06
2018-08-11T21:39:19.090Z,16.12
2018-08-11T21:41:49.391Z,16.06
2018-08-11T21:44:19.650Z,15.91
2018-08-11T21:46:50.106Z,15.89
2018-08-11T21:49:22.207Z,15.90
2018-08-11T21:51:52.641Z,15.89
2018-08-11T21:54:23.830Z,15.91
2018-08-11T21:56:57.119Z,15.86
2018-08-11T21:59:31.922Z,15.73
2018-08-11T22:02:02.402Z,15.71
2018-08-11T22:04:36.691Z,15.55
2018-08-11T22:07:08.265Z,15.43
2018-08-11T22:09:39.169Z,15.63
2018-08-11T22:12:11.596Z,15.65
2018-08-11T22:14:43.572Z,15.69
2018-08-11T22:17:13.827Z,15.52
2018-08-11T22:19:45.722Z,15.40
2018-08-11T22:22:15.925Z,15.56
2018-08-11T22:24:46.336Z,15.69
2018-08-11T22:27:17.897Z,15.72
2018-08-11T22:29:50.280Z,15.62
2018-08-11T22:32:22.960Z,15.80
2018-08-11T22:34:54.305Z,15.64
2018-08-11T22:37:28.389Z,15.59
2018-08-11T22:40:00.091Z,15.59
2018-08-11T22:42:33.055Z,15.59
2018-08-11T22:50:02.552Z,15.60
2018-08-11T22:52:32.919Z,15.68
2018-08-11T22:55:03.207Z,15.60
2018-08-11T22:57:35.510Z,15.53
2018-08-11T23:00:14.606Z,15.56
2018-08-11T23:02:47.262Z,15.53
2018-08-11T23:05:22.020Z,15.28
2018-08-11T23:07:52.570Z,15.33
2018-08-11T23:10:24.846Z,15.45
2018-08-11T23:12:55.566Z,15.17
2018-08-11T23:15:25.772Z,15.11
2018-08-11T23:17:59.345Z,15.22
2018-08-11T23:20:29.983Z,15.00
2018-08-11T23:23:00.815Z,14.90
2018-08-11T23:25:33.049Z,14.97
2018-08-11T23:28:04.741Z,14.99
2018-08-11T23:30:35.745Z,14.92
2018-08-11T23:33:10.953Z,14.84
2018-08-11T23:35:41.163Z,14.96
2018-08-11T23:38:11.442Z,14.93
2018-08-11T23:40:41.878Z,14.91
2018-08-11T23:43:14.219Z,14.85
2018-08-11T23:45:46.856Z,14.69
2018-08-11T23:48:19.654Z,14.87
2018-08-11T23:50:52.409Z,14.93
2018-08-11T23:53:25.952Z,14.94
2018-08-11T23:55:56.853Z,15.05
2018-08-11T23:58:30.670Z,14.98
